Time;durP1;ratioP1;P1;durP2;ratioP2;P2;SDS_P1;SDS_P2;PMS_P1;PMS_P2;Temp;Humidity;BMP_temperature;BMP_pressure;BME280_temperature;BME280_humidity;BME280_pressure;Samples;Min_cycle;Max_cycle;Signal;HPM_P1;HPM_P2
2023/12/09 07:01:28;;;;;;;2.10;1.90;;;8.80;99.90;10.60;100223.00;;;;6060678;22;4288353;-68
2023/12/09 07:04:02;;;;;;;5.23;3.27;;;8.80;99.90;10.80;100224.00;;;;6278448;22;20137;-68
2023/12/09 07:06:36;;;;;;;2.60;2.40;;;8.90;99.90;10.50;100192.00;;;;6278517;22;20152;-68
2023/12/09 07:09:10;;;;;;;8.57;2.07;;;8.80;99.90;10.70;100202.00;;;;6276961;22;20473;-68
2023/12/09 07:11:44;;;;;;;2.13;1.93;;;8.80;99.90;10.80;100198.00;;;;6251229;22;20209;-69
2023/12/09 07:14:19;;;;;;;4.20;2.73;;;8.90;99.90;10.90;100190.00;;;;6277031;22;20166;-69
2023/12/09 07:16:50;;;;;;;4.07;2.30;;;8.90;99.90;10.70;100189.00;;;;6276967;22;20163;-69
2023/12/09 07:19:24;;;;;;;4.67;2.50;;;8.90;99.90;10.90;100177.00;;;;6276877;22;20147;-69
2023/12/09 07:21:56;;;;;;;3.83;3.53;;;9.00;99.90;10.70;100175.00;;;;6278044;22;20146;-69
2023/12/09 07:24:30;;;;;;;0.50;0.50;;;9.00;99.90;11.40;100184.00;;;;6276544;22;20194;-70
2023/12/09 07:26:59;;;;;;;10.80;3.03;;;9.00;99.90;10.70;100160.00;;;;6276958;22;20266;-69
2023/12/09 07:29:25;;;;;;;6.03;2.77;;;8.90;99.90;10.30;100164.00;;;;6278307;22;20183;-69
2023/12/09 07:31:57;;;;;;;4.60;2.43;;;8.90;99.90;10.60;100170.00;;;;6276771;22;20497;-68
2023/12/09 07:34:29;;;;;;;2.30;1.67;;;8.90;99.90;10.40;100171.00;;;;6277205;22;20234;-68
2023/12/09 07:36:56;;;;;;;6.70;1.80;;;8.80;99.90;10.40;100149.00;;;;6276763;22;20192;-68
2023/12/09 07:39:30;;;;;;;3.87;2.57;;;8.80;99.90;10.30;100165.00;;;;6276659;22;20214;-68
2023/12/09 07:42:01;;;;;;;1.90;1.13;;;8.80;99.90;10.80;100117.00;;;;6278371;22;20161;-69
2023/12/09 07:44:27;;;;;;;1.70;1.60;;;8.90;99.90;10.90;100141.00;;;;6278512;22;20145;-69
2023/12/09 07:46:57;;;;;;;3.23;1.47;;;8.90;99.90;10.60;100104.00;;;;6276676;22;20166;-69
2023/12/09 07:49:24;;;;;;;7.73;3.13;;;9.00;99.90;10.30;100102.00;;;;6276923;22;20456;-69
2023/12/09 07:51:58;;;;;;;2.40;1.47;;;8.90;99.90;10.40;100136.00;;;;6276309;22;20505;-69
2023/12/09 07:54:32;;;;;;;5.43;2.13;;;8.90;99.90;10.50;100139.00;;;;6251293;22;20155;-69
2023/12/09 07:57:02;;;;;;;10.63;2.13;;;8.90;99.90;10.80;100136.00;;;;6250805;22;20163;-69
2023/12/09 07:59:28;;;;;;;6.70;1.33;;;9.00;99.90;10.60;100129.00;;;;6250830;22;20169;-69
2023/12/09 08:01:54;;;;;;;1.97;1.20;;;9.00;99.90;11.00;100131.00;;;;6276661;22;20145;-69
2023/12/09 08:04:20;;;;;;;6.23;0.60;;;9.10;99.90;10.80;100129.00;;;;6276494;22;20158;-69
2023/12/09 08:06:52;;;;;;;4.37;1.80;;;9.10;99.90;10.70;100126.00;;;;6277687;22;20220;-69
2023/12/09 08:09:24;;;;;;;1.80;1.70;;;9.10;99.90;10.70;100123.00;;;;6277880;22;20239;-69
2023/12/09 08:12:01;;;;;;;5.30;0.93;;;9.00;99.90;10.90;100127.00;;;;6277556;22;20624;-69
2023/12/09 08:14:33;;;;;;;1.57;1.37;;;9.10;99.90;10.90;100130.00;;;;6276636;22;20223;-69
2023/12/09 08:17:02;;;;;;;1.93;1.80;;;9.10;99.90;10.70;100115.00;;;;6250749;22;20273;-69
2023/12/09 08:19:33;;;;;;;1.80;0.40;;;9.10;99.90;11.00;100112.00;;;;6276515;22;20153;-69
2023/12/09 08:22:07;;;;;;;6.30;3.67;;;9.20;99.90;10.70;100110.00;;;;6277452;22;20157;-69
2023/12/09 08:24:38;;;;;;;2.67;1.63;;;9.10;99.90;10.60;100104.00;;;;6276583;22;20147;-69
2023/12/09 08:27:10;;;;;;;0.90;0.83;;;9.20;99.90;10.90;100092.00;;;;6276161;22;20156;-70
2023/12/09 08:29:44;;;;;;;1.63;0.57;;;9.20;99.90;10.90;100097.00;;;;6250415;22;20172;-70
2023/12/09 08:32:18;;;;;;;0.50;0.50;;;9.20;99.90;11.10;100095.00;;;;6275237;22;20637;-69
2023/12/09 08:34:47;;;;;;;0.40;0.37;;;9.30;99.90;11.50;100093.00;;;;6277546;22;20476;-70
2023/12/09 08:37:24;;;;;;;5.60;2.73;;;9.30;99.90;10.80;100086.00;;;;6275814;22;20157;-70
2023/12/09 08:40:10;;;;;;;2.70;1.47;;;9.40;99.90;11.10;100094.00;;;;6252522;22;20164;-70
2023/12/09 08:42:45;;;;;;;2.23;1.50;;;9.30;99.90;11.10;100084.00;;;;6276241;22;20151;-70
2023/12/09 08:45:23;;;;;;;0.20;0.20;;;9.40;99.90;11.40;100061.00;;;;6276390;22;20148;-70
2023/12/09 08:48:04;;;;;;;3.53;2.80;;;9.50;99.90;11.40;100070.00;;;;6277304;22;20141;-69
2023/12/09 08:50:38;;;;;;;1.40;1.37;;;9.50;99.90;11.20;100060.00;;;;6275763;22;20151;-70
2023/12/09 08:53:13;;;;;;;10.70;1.27;;;9.40;99.90;11.20;100006.00;;;;6277519;22;20234;-70
2023/12/09 08:55:47;;;;;;;1.73;1.40;;;9.50;99.90;10.90;100029.00;;;;6250532;22;20149;-69
2023/12/09 08:58:27;;;;;;;1.50;0.87;;;9.50;99.90;11.40;100031.00;;;;6277241;22;20651;-69
2023/12/09 09:00:56;;;;;;;0.70;0.37;;;9.60;99.90;11.50;100017.00;;;;6277563;22;20194;-69
2023/12/09 09:03:28;;;;;;;4.13;1.47;;;9.60;99.90;11.40;100005.00;;;;6275798;22;20189;-70
2023/12/09 09:06:02;;;;;;;3.30;1.03;;;9.70;99.90;11.50;99962.00;;;;6277236;22;20141;-70
2023/12/09 09:08:35;;;;;;;0.20;0.20;;;9.60;99.90;11.80;99999.00;;;;6277379;22;20160;-70
2023/12/09 09:11:13;;;;;;;0.50;0.50;;;9.70;99.90;11.70;99971.00;;;;6275918;22;20161;-70
2023/12/09 09:13:51;;;;;;;0.83;0.70;;;9.80;99.90;11.70;99959.00;;;;6275333;22;20241;-70
2023/12/09 09:16:17;;;;;;;1.60;1.07;;;9.80;99.90;11.80;99931.00;;;;6277162;22;20190;-70
2023/12/09 09:18:51;;;;;;;0.30;0.30;;;9.90;99.90;11.80;99957.00;;;;6277295;22;20168;-71
2023/12/09 09:21:23;;;;;;;2.13;1.50;;;9.90;99.90;11.80;99904.00;;;;6250377;22;20225;-71
2023/12/09 09:23:52;;;;;;;1.20;1.07;;;9.90;99.90;11.90;99934.00;;;;6276010;22;20385;-71
2023/12/09 09:26:33;;;;;;;2.43;0.50;;;9.90;99.90;12.00;99937.00;;;;6275664;22;20152;-71
2023/12/09 09:29:13;;;;;;;0.20;0.20;;;10.00;99.90;12.10;99932.00;;;;6275894;22;20139;-71
2023/12/09 09:31:47;;;;;;;4.33;1.37;;;10.00;99.90;11.50;99934.00;;;;6249697;22;20228;-71
2023/12/09 09:34:24;;;;;;;1.07;0.93;;;9.90;99.90;11.60;99940.00;;;;6274772;22;20574;-71
2023/12/09 09:36:58;;;;;;;0.20;0.20;;;9.90;99.90;11.70;99929.00;;;;6250848;22;20522;-71
2023/12/09 09:39:38;;;;;;;2.43;0.67;;;9.90;99.90;11.40;99917.00;;;;6276958;22;20156;-71
2023/12/09 09:42:14;;;;;;;2.53;1.87;;;9.80;99.90;11.40;99905.00;;;;6277148;22;20144;-73
2023/12/09 09:45:18;;;;;;;5.00;0.73;;;9.80;99.90;11.50;99896.00;;;;6277107;22;20156;-76
2023/12/09 09:48:29;;;;;;;0.30;0.30;;;9.70;99.90;11.30;99910.00;;;;6274728;22;20137;-70
2023/12/09 09:51:26;;;;;;;0.40;0.40;;;9.60;99.90;11.70;99883.00;;;;6275101;22;20165;-70
2023/12/09 09:54:15;;;;;;;10.97;1.83;;;9.60;99.90;11.40;99849.00;;;;6274617;22;20169;-70
2023/12/09 09:56:53;;;;;;;0.57;0.57;;;9.50;99.90;11.10;99869.00;;;;6275553;22;20145;-70
2023/12/09 09:59:48;;;;;;;2.10;0.60;;;9.40;99.90;11.40;99826.00;;;;6249589;22;20346;-70
2023/12/09 10:02:25;;;;;;;1.07;0.97;;;9.40;99.90;11.50;99853.00;;;;6242502;22;20510;-69
2023/12/09 10:04:59;;;;;;;3.90;0.93;;;9.50;99.90;11.10;99843.00;;;;6275292;22;20164;-70
2023/12/09 10:07:48;;;;;;;0.60;0.60;;;9.30;99.90;10.90;99807.00;;;;6275172;22;20573;-70
2023/12/09 10:10:23;;;;;;;0.30;0.30;;;9.30;99.90;11.20;99784.00;;;;6249851;22;20544;-70
2023/12/09 10:13:12;;;;;;;0.47;0.47;;;9.30;99.90;11.20;99812.00;;;;6250231;22;20179;-70
2023/12/09 10:16:04;;;;;;;0.60;0.60;;;9.30;99.90;10.80;99806.00;;;;6252323;22;20172;-70
2023/12/09 10:19:01;;;;;;;1.13;1.13;;;9.20;99.90;11.30;99804.00;;;;6249333;22;20218;-70
2023/12/09 10:33:39;;;;;;;1.00;0.90;;;8.60;99.90;10.20;99760.00;;;;5090375;28;20572;-70
2023/12/09 10:36:14;;;;;;;1.70;0.60;;;8.80;99.90;10.70;99736.00;;;;5068824;28;20379;-70
2023/12/09 10:38:52;;;;;;;0.70;0.53;;;8.90;99.90;10.90;99714.00;;;;5069205;28;20191;-71
2023/12/09 10:41:18;;;;;;;1.57;0.80;;;8.90;99.90;11.10;99686.00;;;;5070050;28;20202;-71
2023/12/09 10:43:58;;;;;;;1.37;1.17;;;9.10;99.90;10.70;99655.00;;;;5070236;28;20209;-71
2023/12/09 10:46:42;;;;;;;0.40;0.40;;;9.00;99.90;11.00;99667.00;;;;5068480;28;20276;-71
2023/12/09 10:49:13;;;;;;;0.87;0.73;;;9.10;99.90;11.10;99660.00;;;;5069149;28;20197;-71
2023/12/09 10:51:47;;;;;;;1.53;0.87;;;9.20;99.90;11.40;99662.00;;;;5069645;28;20204;-71
2023/12/09 10:54:13;;;;;;;1.13;0.70;;;9.20;99.90;11.30;99651.00;;;;5069095;28;20269;-71
2023/12/09 10:56:44;;;;;;;0.43;0.43;;;9.30;99.90;11.10;99592.00;;;;5069761;28;20242;-70
2023/12/09 10:59:23;;;;;;;0.53;0.47;;;9.20;99.90;10.90;99616.00;;;;5052154;28;20206;-70
2023/12/09 11:01:59;;;;;;;1.37;0.77;;;9.20;99.90;10.60;99609.00;;;;5068127;28;20269;-70
2023/12/09 11:04:25;;;;;;;1.50;0.90;;;9.10;99.90;11.00;99590.00;;;;5057875;28;20188;-70
2023/12/09 11:07:02;;;;;;;0.40;0.40;;;9.10;99.90;10.80;99568.00;;;;5068376;28;20189;-70
2023/12/09 11:09:31;;;;;;;0.43;0.43;;;9.10;99.90;10.80;99568.00;;;;5067197;28;20183;-70
2023/12/09 11:12:03;;;;;;;0.83;0.63;;;9.10;99.90;10.70;99569.00;;;;5051504;28;20209;-70
2023/12/09 11:14:41;;;;;;;0.50;0.50;;;9.00;99.90;10.80;99548.00;;;;5067090;28;20266;-70
2023/12/09 11:17:37;;;;;;;0.63;0.50;;;9.10;99.90;10.90;99527.00;;;;5068496;28;20191;-70
2023/12/09 11:20:17;;;;;;;0.93;0.93;;;9.10;99.90;10.90;99513.00;;;;5067126;28;20193;-70
2023/12/09 11:22:47;;;;;;;0.80;0.70;;;9.10;99.90;11.00;99503.00;;;;5081547;28;20182;-71
2023/12/09 11:25:28;;;;;;;0.40;0.40;;;9.10;99.90;11.00;99493.00;;;;5068482;28;20175;-70
2023/12/09 11:28:32;;;;;;;1.27;0.80;;;9.20;99.90;11.10;99473.00;;;;5051625;28;20202;-70
2023/12/09 11:31:20;;;;;;;2.73;0.57;;;9.10;99.90;10.70;99460.00;;;;5065587;28;20591;-70
2023/12/09 11:34:29;;;;;;;0.33;0.33;;;9.10;99.90;11.00;99452.00;;;;5063752;28;20230;-70
2023/12/09 11:37:35;;;;;;;0.90;0.90;;;9.10;99.90;11.30;99436.00;;;;5044805;28;20278;-71
2023/12/09 11:40:51;;;;;;;0.70;0.70;;;9.20;99.90;10.70;99415.00;;;;5064255;28;20193;-70
2023/12/09 11:43:17;;;;;;;0.70;0.60;;;9.10;99.90;10.90;99406.00;;;;5056680;28;20252;-71
2023/12/09 11:45:43;;;;;;;0.40;0.40;;;9.10;99.90;10.90;99397.00;;;;5053703;28;20264;-71
2023/12/09 11:48:09;;;;;;;0.90;0.90;;;9.10;99.90;10.70;99380.00;;;;5032404;28;20199;-71
2023/12/09 11:50:39;;;;;;;0.70;0.70;;;9.10;99.90;10.90;99390.00;;;;5049999;28;20227;-71
2023/12/09 11:53:05;;;;;;;1.27;1.20;;;9.10;99.90;11.00;99361.00;;;;5054506;28;20257;-71
2023/12/09 11:55:37;;;;;;;0.97;0.97;;;9.10;99.90;10.50;99342.00;;;;5054476;28;20192;-72
2023/12/09 11:58:09;;;;;;;1.03;1.03;;;9.00;99.90;10.50;99311.00;;;;5054416;28;20713;-72
2023/12/09 12:00:38;;;;;;;0.83;0.83;;;9.00;99.90;11.10;99324.00;;;;5060582;28;20212;-72
2023/12/09 12:03:10;;;;;;;0.80;0.80;;;9.10;99.90;10.60;99315.00;;;;5060961;28;20519;-72
2023/12/09 12:05:44;;;;;;;0.87;0.87;;;8.90;99.90;10.80;99304.00;;;;5054421;28;20237;-72
2023/12/09 12:08:20;;;;;;;1.67;0.80;;;9.00;99.90;10.60;99291.00;;;;5054032;28;20185;-72
2023/12/09 12:10:52;;;;;;;1.10;1.10;;;8.90;99.90;10.80;99292.00;;;;5037529;28;20185;-72
2023/12/09 12:13:26;;;;;;;1.10;1.10;;;9.00;99.90;11.10;99288.00;;;;5037153;28;20206;-72
2023/12/09 12:16:00;;;;;;;5.73;1.07;;;9.00;99.90;10.60;99277.00;;;;5054001;28;20214;-72
2023/12/09 12:18:34;;;;;;;0.80;0.80;;;8.90;99.90;10.60;99258.00;;;;5037130;28;20177;-71
2023/12/09 12:21:12;;;;;;;1.40;1.03;;;8.90;99.90;10.70;99251.00;;;;5053922;28;20190;-72
2023/12/09 12:23:43;;;;;;;0.90;0.90;;;8.80;99.90;10.80;99253.00;;;;5053706;28;20249;-72
2023/12/09 12:26:21;;;;;;;0.67;0.67;;;8.90;99.90;10.80;99243.00;;;;5044609;28;20231;-72
2023/12/09 12:28:57;;;;;;;0.80;0.80;;;9.00;99.90;10.90;99227.00;;;;5053384;28;20186;-72
2023/12/09 12:31:37;;;;;;;1.03;1.03;;;9.00;99.90;10.70;99223.00;;;;5051239;28;20311;-71
2023/12/09 12:34:43;;;;;;;1.13;1.13;;;9.00;99.90;10.90;99151.00;;;;5053913;28;20547;-72
2023/12/09 12:37:18;;;;;;;3.03;1.67;;;9.10;99.90;10.80;99202.00;;;;5053581;28;20202;-71
2023/12/09 12:39:49;;;;;;;0.93;0.93;;;9.10;99.90;11.10;99172.00;;;;5050757;28;20226;-72
2023/12/09 12:42:26;;;;;;;0.90;0.90;;;9.10;99.90;10.70;99132.00;;;;5033787;28;20194;-72
2023/12/09 12:45:08;;;;;;;1.13;0.73;;;9.10;99.90;10.90;99151.00;;;;5047305;28;20203;-72
2023/12/09 12:47:42;;;;;;;0.90;0.90;;;9.10;99.90;10.60;99134.00;;;;5050819;28;20663;-73
2023/12/09 12:50:09;;;;;;;0.90;0.90;;;9.00;99.90;10.70;99139.00;;;;5036291;28;20243;-73
2023/12/09 12:52:44;;;;;;;0.70;0.70;;;9.00;99.90;10.90;99119.00;;;;5052881;28;20206;-73
2023/12/09 12:55:20;;;;;;;1.90;0.93;;;9.10;99.90;10.90;99110.00;;;;5052106;28;20181;-72
2023/12/09 12:57:53;;;;;;;1.60;1.40;;;9.10;99.90;10.50;99102.00;;;;5036450;28;20186;-72
2023/12/09 13:00:26;;;;;;;1.73;1.53;;;9.00;99.90;10.50;99098.00;;;;5053829;28;20178;-73
2023/12/09 13:03:07;;;;;;;2.77;1.77;;;9.00;99.90;10.70;99089.00;;;;5052198;28;20656;-72
2023/12/09 13:05:49;;;;;;;1.83;1.47;;;9.00;99.90;10.70;99081.00;;;;5046486;28;20622;-72
2023/12/09 13:08:26;;;;;;;1.63;1.53;;;9.00;99.90;10.90;99078.00;;;;5053539;28;20197;-72
2023/12/09 13:11:00;;;;;;;1.40;1.13;;;9.00;99.90;10.30;99075.00;;;;5052201;28;20181;-72
2023/12/09 13:13:37;;;;;;;1.43;1.33;;;8.90;99.90;10.70;99031.00;;;;5035830;28;20228;-72
2023/12/09 13:16:11;;;;;;;2.57;1.13;;;9.00;99.90;10.70;99052.00;;;;5050779;28;20178;-73
2023/12/09 13:18:45;;;;;;;1.50;0.93;;;9.00;99.90;10.90;99044.00;;;;5052597;28;20272;-72
2023/12/09 13:21:17;;;;;;;0.80;0.80;;;9.00;99.90;10.60;99036.00;;;;5047416;28;20203;-72
2023/12/09 13:23:51;;;;;;;0.83;0.50;;;9.00;99.90;10.50;99024.00;;;;5057916;28;20178;-72
2023/12/09 13:26:25;;;;;;;1.33;1.23;;;9.00;99.90;10.90;99016.00;;;;5034608;28;20181;-72
2023/12/09 13:28:59;;;;;;;0.70;0.70;;;9.10;99.90;10.60;99009.00;;;;5042039;28;20547;-72
2023/12/09 13:31:34;;;;;;;4.27;1.60;;;9.10;99.90;10.70;98970.00;;;;5063016;28;20216;-72
2023/12/09 13:34:10;;;;;;;3.63;1.10;;;9.10;99.90;10.70;98968.00;;;;5048359;28;20687;-72
2023/12/09 13:36:39;;;;;;;0.70;0.70;;;9.10;99.90;10.60;98994.00;;;;5051703;28;20193;-72
2023/12/09 13:39:16;;;;;;;0.70;0.63;;;9.10;99.90;10.80;98978.00;;;;5053430;28;20195;-72
2023/12/09 13:41:51;;;;;;;0.47;0.47;;;9.10;99.90;10.80;98963.00;;;;5037385;28;20199;-72
2023/12/09 13:44:28;;;;;;;0.70;0.60;;;9.20;99.90;10.90;98962.00;;;;5056092;28;20191;-73
2023/12/09 13:47:02;;;;;;;1.03;1.03;;;9.20;99.90;11.00;98938.00;;;;5046427;28;20269;-72
2023/12/09 13:49:33;;;;;;;0.40;0.40;;;9.30;99.90;11.20;98935.00;;;;5051563;28;20235;-73
2023/12/09 13:52:11;;;;;;;1.27;0.60;;;9.30;99.90;10.90;98924.00;;;;5052043;28;20216;-72
2023/12/09 13:54:43;;;;;;;0.53;0.53;;;9.30;99.90;11.00;98910.00;;;;5034788;28;20200;-72
2023/12/09 13:57:17;;;;;;;0.50;0.50;;;9.30;99.90;11.10;98900.00;;;;5035294;28;20186;-73
2023/12/09 13:59:43;;;;;;;1.43;0.60;;;9.40;99.90;10.60;98896.00;;;;5051421;28;20204;-72
2023/12/09 14:02:20;;;;;;;0.90;0.90;;;9.30;99.90;10.90;98875.00;;;;5054357;28;20702;-72
2023/12/09 14:04:46;;;;;;;0.97;0.90;;;9.30;99.90;10.90;98870.00;;;;5033471;28;20194;-73
2023/12/09 14:07:13;;;;;;;0.70;0.70;;;9.30;99.90;10.80;98871.00;;;;5031915;28;20557;-72
2023/12/09 14:09:47;;;;;;;2.00;1.27;;;9.30;99.90;11.20;98857.00;;;;5051236;28;20178;-73
2023/12/09 14:12:24;;;;;;;0.50;0.50;;;9.40;99.90;11.10;98881.00;;;;5041905;28;20265;-72
2023/12/09 14:14:59;;;;;;;0.63;0.63;;;9.40;99.90;11.20;98873.00;;;;5051902;28;20185;-72
2023/12/09 14:17:33;;;;;;;0.60;0.60;;;9.40;99.90;11.00;98864.00;;;;5051502;28;20236;-72
2023/12/09 14:20:11;;;;;;;0.80;0.80;;;9.40;99.90;11.20;98870.00;;;;5051839;28;20230;-72
2023/12/09 14:22:45;;;;;;;0.97;0.63;;;9.50;99.90;10.90;98862.00;;;;5049511;28;20194;-72
2023/12/09 14:25:23;;;;;;;0.67;0.60;;;9.40;99.90;11.20;98855.00;;;;5028866;28;20634;-72
2023/12/09 14:27:57;;;;;;;0.70;0.70;;;9.50;99.90;11.20;98855.00;;;;5051686;28;20193;-72
2023/12/09 14:30:29;;;;;;;0.80;0.80;;;9.50;99.90;11.60;98847.00;;;;5051623;28;20251;-72
2023/12/09 14:33:00;;;;;;;2.13;1.93;;;9.60;99.90;11.60;98841.00;;;;5055744;28;20221;-72
2023/12/09 14:35:31;;;;;;;1.20;1.13;;;9.70;99.90;11.20;98826.00;;;;5052605;28;20184;-72
2023/12/09 14:38:05;;;;;;;0.50;0.50;;;9.60;99.90;11.40;98826.00;;;;5037348;28;20182;-72
2023/12/09 14:40:37;;;;;;;0.50;0.50;;;9.70;99.90;11.30;98838.00;;;;5051320;28;20643;-72
2023/12/09 14:43:13;;;;;;;1.00;0.60;;;9.70;99.90;11.30;98798.00;;;;5053800;28;20198;-72
2023/12/09 14:45:50;;;;;;;0.40;0.40;;;9.70;99.90;11.30;98831.00;;;;5052268;28;20178;-72
2023/12/09 14:48:24;;;;;;;0.60;0.60;;;9.70;99.90;11.10;98827.00;;;;5035082;28;20193;-72
2023/12/09 14:50:58;;;;;;;0.40;0.40;;;9.60;99.90;11.50;98825.00;;;;5043507;28;20179;-72
2023/12/09 14:53:35;;;;;;;0.50;0.50;;;9.70;99.90;11.80;98833.00;;;;5051090;28;20690;-72
2023/12/09 14:56:09;;;;;;;0.50;0.50;;;9.80;99.90;12.00;98823.00;;;;5050866;28;20182;-71
2023/12/09 14:58:43;;;;;;;0.40;0.40;;;9.80;99.90;11.50;98821.00;;;;5052115;28;20185;-71
2023/12/09 15:01:18;;;;;;;0.50;0.50;;;9.80;99.90;11.80;98828.00;;;;5050277;28;20326;-72
2023/12/09 15:03:47;;;;;;;0.40;0.40;;;9.80;99.90;11.60;98828.00;;;;5037419;28;20232;-71
2023/12/09 15:06:21;;;;;;;0.30;0.30;;;9.80;99.90;11.90;98823.00;;;;5045493;28;20176;-72
2023/12/09 15:08:50;;;;;;;0.43;0.43;;;9.90;99.90;12.10;98823.00;;;;5050705;28;20199;-72
2023/12/09 15:11:24;;;;;;;0.60;0.50;;;10.00;99.90;11.90;98826.00;;;;5050630;28;20182;-71
2023/12/09 15:13:54;;;;;;;0.60;0.60;;;10.00;99.90;12.10;98833.00;;;;5051552;28;20264;-72
2023/12/09 15:16:28;;;;;;;0.50;0.50;;;10.00;99.90;12.10;98825.00;;;;5051979;28;20265;-72
2023/12/09 15:19:06;;;;;;;0.47;0.47;;;10.20;99.90;11.50;98743.00;;;;5052324;28;20260;-72
2023/12/09 15:21:38;;;;;;;0.40;0.40;;;10.10;99.90;11.80;98828.00;;;;5054665;28;20668;-72
2023/12/09 15:24:12;;;;;;;3.80;0.83;;;10.10;99.90;12.10;98832.00;;;;5054871;28;20188;-72
2023/12/09 15:26:51;;;;;;;0.40;0.37;;;10.10;99.90;12.10;98838.00;;;;5071388;28;20243;-71
2023/12/09 15:29:27;;;;;;;0.40;0.40;;;10.20;99.90;12.30;98827.00;;;;5062506;28;20185;-71
2023/12/09 15:31:59;;;;;;;9.50;1.20;;;10.20;99.90;11.70;98841.00;;;;5064008;28;20218;-71
2023/12/09 15:34:35;;;;;;;0.20;0.20;;;10.20;99.90;12.30;98846.00;;;;5063473;28;20532;-71
2023/12/09 15:37:09;;;;;;;0.30;0.30;;;10.30;99.90;12.30;98849.00;;;;5054594;28;20212;-71
2023/12/09 15:39:41;;;;;;;0.40;0.40;;;10.40;99.90;13.00;98850.00;;;;5037004;28;20194;-71
2023/12/09 15:42:24;;;;;;;0.63;0.60;;;10.50;99.90;12.20;98836.00;;;;5055109;28;20193;-71
2023/12/09 15:45:00;;;;;;;0.30;0.30;;;10.50;99.90;12.80;98830.00;;;;5051857;28;20246;-72
2023/12/09 15:47:31;;;;;;;0.40;0.40;;;10.50;99.90;12.40;98841.00;;;;5065432;28;20549;-71
2023/12/09 15:50:07;;;;;;;0.30;0.30;;;10.60;99.90;13.50;98842.00;;;;5052706;28;20182;-72
2023/12/09 15:52:38;;;;;;;1.40;1.40;;;10.80;99.90;12.90;98839.00;;;;5054992;28;20212;-71
2023/12/09 15:55:15;;;;;;;0.30;0.30;;;10.70;99.90;13.20;98830.00;;;;5054688;28;20556;-71
2023/12/09 15:57:47;;;;;;;0.43;0.43;;;10.90;99.90;13.40;98824.00;;;;5056740;28;20201;-72
2023/12/09 16:00:16;;;;;;;0.40;0.40;;;10.90;99.90;13.30;98818.00;;;;5054601;28;20187;-72
2023/12/09 16:03:00;;;;;;;0.30;0.30;;;10.90;99.90;13.70;98820.00;;;;5053427;28;20249;-72
2023/12/09 16:05:26;;;;;;;0.40;0.40;;;11.00;99.90;14.10;98826.00;;;;5053456;28;20190;-71
2023/12/09 16:07:53;;;;;;;0.40;0.40;;;11.20;99.90;14.30;98819.00;;;;5054595;28;20191;-72
2023/12/09 16:10:22;;;;;;;0.57;0.57;;;11.50;99.90;13.80;98825.00;;;;5055204;28;20237;-71
2023/12/09 16:12:55;;;;;;;0.47;0.47;;;11.20;99.90;13.90;98830.00;;;;5068419;28;20633;-71
2023/12/09 16:15:21;;;;;;;0.50;0.50;;;11.20;99.90;13.90;98822.00;;;;5050692;28;20215;-71
2023/12/09 16:17:47;;;;;;;0.40;0.40;;;11.40;99.90;13.70;98816.00;;;;5061479;28;20176;-71
2023/12/09 16:20:17;;;;;;;0.50;0.50;;;11.40;99.90;14.00;98805.00;;;;5051014;28;20207;-73
2023/12/09 16:22:44;;;;;;;1.70;0.73;;;11.50;99.90;13.40;98815.00;;;;5056188;28;20714;-72
2023/12/09 16:25:21;;;;;;;0.30;0.30;;;11.40;99.90;14.20;98811.00;;;;5053805;28;20186;-72
2023/12/09 16:27:55;;;;;;;0.47;0.47;;;11.40;99.90;14.50;98835.00;;;;5055460;28;20650;-72
2023/12/09 16:30:29;;;;;;;0.50;0.50;;;11.60;99.90;14.90;98836.00;;;;5046043;28;20182;-73
2023/12/09 16:32:56;;;;;;;0.40;0.40;;;11.90;99.90;14.10;98852.00;;;;5051029;28;20308;-72
2023/12/09 16:35:24;;;;;;;2.43;0.63;;;11.80;99.90;13.70;98860.00;;;;5054901;28;20189;-72
2023/12/09 16:37:51;;;;;;;0.40;0.40;;;11.70;99.90;14.50;98860.00;;;;5053137;28;20211;-72
2023/12/09 16:40:23;;;;;;;0.40;0.40;;;11.80;99.90;15.00;98872.00;;;;5054572;28;20206;-71
2023/12/09 16:42:50;;;;;;;2.47;2.27;;;12.00;99.90;13.30;98890.00;;;;5053493;28;20195;-71
2023/12/09 16:45:21;;;;;;;4.10;2.23;;;11.90;99.90;13.70;98911.00;;;;5054357;28;20193;-71
2023/12/09 16:47:52;;;;;;;5.03;1.37;;;11.90;99.90;13.80;98904.00;;;;5053016;28;20209;-71
2023/12/09 16:50:18;;;;;;;6.23;0.80;;;11.90;99.90;13.70;98920.00;;;;5052712;28;20654;-71
2023/12/09 16:52:44;;;;;;;0.97;0.97;;;11.90;99.90;14.30;98923.00;;;;5054250;28;20217;-71
2023/12/09 16:55:24;;;;;;;0.20;0.20;;;12.00;99.90;14.80;98905.00;;;;5054110;28;20189;-71
2023/12/09 16:57:50;;;;;;;0.77;0.77;;;12.00;99.90;14.60;98943.00;;;;5053766;28;20250;-71
2023/12/09 17:00:19;;;;;;;0.37;0.37;;;12.10;99.90;15.00;98925.00;;;;5055741;28;20278;-71
2023/12/09 17:02:48;;;;;;;1.70;1.60;;;12.30;99.90;14.30;98930.00;;;;5045855;28;20189;-72
2023/12/09 17:05:35;;;;;;;0.50;0.50;;;12.10;99.90;14.00;98925.00;;;;5051096;28;20187;-72
2023/12/09 17:08:36;;;;;;;0.70;0.60;;;12.10;99.90;14.20;98944.00;;;;5052493;28;20203;-72
2023/12/09 17:11:02;;;;;;;0.50;0.50;;;12.10;99.90;14.40;98943.00;;;;5046073;28;20186;-72
2023/12/09 17:13:33;;;;;;;0.67;0.67;;;12.20;99.90;13.80;98948.00;;;;5058960;28;20212;-73
2023/12/09 17:16:00;;;;;;;1.33;1.30;;;12.10;99.90;14.60;98950.00;;;;5057745;28;20193;-73
2023/12/09 17:18:34;;;;;;;4.07;3.07;;;12.20;99.90;14.20;98939.00;;;;5040311;28;20181;-71
2023/12/09 17:21:05;;;;;;;1.00;0.83;;;12.20;99.90;14.20;98951.00;;;;5054713;28;20188;-71
2023/12/09 17:23:36;;;;;;;1.33;0.73;;;12.20;99.90;14.10;98961.00;;;;5048828;28;20251;-70
2023/12/09 17:26:08;;;;;;;1.90;1.00;;;12.20;99.90;14.00;98952.00;;;;5053550;28;20224;-70
2023/12/09 17:28:45;;;;;;;2.57;2.37;;;12.30;99.90;13.60;98952.00;;;;5057471;28;20701;-71
2023/12/09 17:31:22;;;;;;;6.50;2.83;;;12.20;99.90;14.40;98963.00;;;;5050347;28;20186;-70
2023/12/09 17:34:24;;;;;;;2.20;1.90;;;12.40;99.90;14.20;98969.00;;;;5052112;28;20191;-70
2023/12/09 17:36:50;;;;;;;3.97;2.10;;;12.40;99.90;14.60;98982.00;;;;5047211;28;20230;-71
2023/12/09 17:39:27;;;;;;;3.03;1.83;;;12.50;99.90;14.50;98981.00;;;;5051751;28;20656;-71
2023/12/09 17:41:57;;;;;;;2.10;1.70;;;12.50;99.90;15.10;98972.00;;;;5051542;28;20208;-71
2023/12/09 17:44:25;;;;;;;12.53;4.00;;;12.70;99.90;14.40;98964.00;;;;5053283;28;20186;-70
2023/12/09 17:46:52;;;;;;;10.93;3.63;;;12.60;99.90;14.20;98985.00;;;;5052917;28;20269;-70
2023/12/09 17:49:29;;;;;;;0.80;0.80;;;12.60;99.90;14.70;98985.00;;;;5053348;28;20195;-70
2023/12/09 17:52:07;;;;;;;4.47;2.60;;;12.60;99.90;14.70;98995.00;;;;5039535;28;20703;-70
2023/12/09 17:54:46;;;;;;;6.13;1.80;;;12.60;99.90;14.10;98969.00;;;;5055597;28;20190;-71
2023/12/09 17:57:17;;;;;;;0.83;0.83;;;12.50;99.90;15.10;98998.00;;;;5052237;28;20184;-71
2023/12/09 17:59:53;;;;;;;0.30;0.30;;;12.70;99.90;15.60;99025.00;;;;5051884;28;20648;-69
2023/12/09 18:02:24;;;;;;;0.40;0.40;;;12.90;99.90;16.00;98993.00;;;;5067078;28;20572;-69
2023/12/09 18:04:53;;;;;;;0.93;0.93;;;13.10;99.90;15.50;98983.00;;;;5052163;28;20220;-69
2023/12/09 18:07:26;;;;;;;2.43;1.40;;;13.00;99.90;15.00;99013.00;;;;5051788;28;20197;-69
2023/12/09 18:09:56;;;;;;;3.03;1.70;;;12.80;99.90;15.20;99019.00;;;;5051526;28;20287;-69
2023/12/09 18:12:30;;;;;;;1.47;1.20;;;12.80;99.90;15.00;99020.00;;;;5052874;28;20210;-69
2023/12/09 18:15:07;;;;;;;8.57;2.47;;;12.60;99.90;14.50;99040.00;;;;5051472;28;20269;-69
2023/12/09 18:17:33;;;;;;;12.07;2.50;;;12.50;99.90;14.10;99057.00;;;;5051686;28;20205;-69
2023/12/09 18:20:06;;;;;;;12.70;3.13;;;12.20;99.90;14.10;99049.00;;;;5042381;28;20185;-69
2023/12/09 18:22:43;;;;;;;9.40;3.50;;;12.10;99.90;13.50;99077.00;;;;5051716;28;20656;-69
2023/12/09 18:25:12;;;;;;;8.27;1.77;;;12.00;99.90;14.40;99074.00;;;;5040022;28;20287;-69
2023/12/09 18:27:46;;;;;;;3.73;2.63;;;12.00;99.90;13.90;99081.00;;;;5052857;28;20199;-69
2023/12/09 18:30:19;;;;;;;1.17;1.07;;;11.80;99.90;14.30;99109.00;;;;5059336;28;20221;-69
2023/12/09 18:32:50;;;;;;;0.90;0.90;;;11.80;99.90;14.40;99116.00;;;;5051912;28;20217;-69
2023/12/09 18:35:27;;;;;;;0.70;0.70;;;11.80;99.90;14.70;99110.00;;;;5050973;28;20286;-69
2023/12/09 18:38:02;;;;;;;8.97;4.40;;;11.90;99.90;13.40;99130.00;;;;5052118;28;20547;-69
2023/12/09 18:40:34;;;;;;;3.93;1.73;;;11.60;99.90;13.60;99109.00;;;;5050173;28;20211;-71
2023/12/09 18:43:26;;;;;;;5.87;1.73;;;11.50;99.90;13.80;99143.00;;;;5050023;28;20191;-69